Time;durP1;ratioP1;P1;durP2;ratioP2;P2;SDS_P1;SDS_P2;PMS_P1;PMS_P2;Temp;Humidity;BMP_temperature;BMP_pressure;BME280_temperature;BME280_humidity;BME280_pressure;Samples;Min_cycle;Max_cycle;Signal;HPM_P1;HPM_P2
2022/04/30 00:02:21;;;;;;;1.88;1.77;;;;;;;;;;4981013;28;20576;-55
2022/04/30 00:04:49;;;;;;;2.00;1.90;;;;;;;;;;4980786;28;20589;-56
2022/04/30 00:07:19;;;;;;;2.10;2.00;;;;;;;;;;4981875;28;20211;-56
2022/04/30 00:09:47;;;;;;;1.90;1.80;;;;;;;;;;4989616;28;20245;-56
2022/04/30 00:12:16;;;;;;;1.98;1.88;;;;;;;;;;5000111;28;20684;-56
2022/04/30 00:14:44;;;;;;;2.00;1.90;;;;;;;;;;4999902;28;20210;-56
2022/04/30 00:17:12;;;;;;;2.20;2.10;;;;;;;;;;4999882;28;20286;-56
2022/04/30 00:19:39;;;;;;;2.10;2.00;;;;;;;;;;4999546;28;20199;-56
2022/04/30 00:22:07;;;;;;;2.17;2.08;;;;;;;;;;5000008;28;20241;-55
2022/04/30 00:24:38;;;;;;;2.10;2.00;;;;;;;;;;5000228;28;20238;-56
2022/04/30 00:27:05;;;;;;;2.30;2.20;;;;;;;;;;4982887;28;20204;-56
2022/04/30 00:29:33;;;;;;;1.88;1.77;;;;;;;;;;4980015;28;20258;-56
2022/04/30 00:32:03;;;;;;;2.30;2.20;;;;;;;;;;4979211;28;20207;-56
2022/04/30 00:34:30;;;;;;;2.33;2.22;;;;;;;;;;4980532;28;20204;-56
2022/04/30 00:37:02;;;;;;;2.20;1.98;;;;;;;;;;4980930;28;20218;-56
2022/04/30 00:39:29;;;;;;;2.10;2.00;;;;;;;;;;4981578;28;20227;-56
2022/04/30 00:41:59;;;;;;;2.15;2.05;;;;;;;;;;4979969;28;20298;-56
2022/04/30 00:44:27;;;;;;;2.10;2.00;;;;;;;;;;4980328;28;20467;-56
2022/04/30 00:46:55;;;;;;;2.10;2.00;;;;;;;;;;4980674;28;20608;-56
2022/04/30 00:49:23;;;;;;;2.22;2.13;;;;;;;;;;4996004;28;20203;-56
2022/04/30 00:51:51;;;;;;;2.00;1.90;;;;;;;;;;4999190;28;20226;-56
2022/04/30 00:54:20;;;;;;;2.17;2.08;;;;;;;;;;4999750;28;20207;-56
2022/04/30 00:56:49;;;;;;;2.10;2.00;;;;;;;;;;4999185;28;20653;-56
2022/04/30 00:59:19;;;;;;;2.10;2.00;;;;;;;;;;4998035;28;20199;-56
2022/04/30 01:01:48;;;;;;;1.95;1.85;;;;;;;;;;4998756;28;20258;-56
2022/04/30 01:04:16;;;;;;;2.22;2.10;;;;;;;;;;4998649;28;20203;-56
2022/04/30 01:06:52;;;;;;;2.20;2.00;;;;;;;;;;4998762;28;20218;-56
2022/04/30 01:09:21;;;;;;;2.28;2.08;;;;;;;;;;4995615;28;20282;-56
2022/04/30 01:11:50;;;;;;;2.22;2.10;;;;;;;;;;4990856;28;20546;-55
2022/04/30 01:14:20;;;;;;;2.00;1.90;;;;;;;;;;4979706;28;20315;-56
2022/04/30 01:16:48;;;;;;;1.80;1.70;;;;;;;;;;4979432;28;20271;-57
2022/04/30 01:19:20;;;;;;;2.33;2.13;;;;;;;;;;4998847;28;20207;-56
2022/04/30 01:21:50;;;;;;;2.03;1.83;;;;;;;;;;4998614;28;20254;-56
2022/04/30 01:24:21;;;;;;;2.13;2.03;;;;;;;;;;4979422;28;20207;-56
2022/04/30 01:26:49;;;;;;;2.30;2.20;;;;;;;;;;4983434;28;20208;-56
2022/04/30 01:29:18;;;;;;;2.10;2.00;;;;;;;;;;4998681;28;20580;-56
2022/04/30 01:37:26;;;;;;;2.20;2.10;;;;;;;;;;4978885;28;20467;-56
2022/04/30 01:39:59;;;;;;;2.17;2.08;;;;;;;;;;4979224;28;20208;-55
2022/04/30 01:42:29;;;;;;;2.28;2.17;;;;;;;;;;4989274;28;20317;-56
2022/04/30 01:44:57;;;;;;;2.20;2.10;;;;;;;;;;4983172;28;20231;-56
2022/04/30 01:47:25;;;;;;;2.10;2.00;;;;;;;;;;4978882;28;20200;-56
2022/04/30 01:49:53;;;;;;;2.10;2.00;;;;;;;;;;4979118;28;20460;-56
2022/04/30 01:52:21;;;;;;;2.03;1.92;;;;;;;;;;4978664;28;20196;-56
2022/04/30 01:54:48;;;;;;;2.13;2.00;;;;;;;;;;4979871;28;20591;-56
2022/04/30 01:57:23;;;;;;;2.20;2.10;;;;;;;;;;4978162;28;20215;-56
2022/04/30 01:59:52;;;;;;;2.40;2.30;;;;;;;;;;4978373;28;20254;-56
2022/04/30 02:02:22;;;;;;;2.10;2.00;;;;;;;;;;4978225;28;20282;-56
2022/04/30 02:04:51;;;;;;;2.10;2.00;;;;;;;;;;4971773;28;20311;-56
2022/04/30 02:07:19;;;;;;;2.28;2.17;;;;;;;;;;4979262;28;20200;-56
2022/04/30 02:09:47;;;;;;;2.30;2.20;;;;;;;;;;4988902;28;20278;-56
2022/04/30 02:12:15;;;;;;;2.17;2.08;;;;;;;;;;4978047;28;20243;-56
2022/04/30 02:14:46;;;;;;;2.55;2.45;;;;;;;;;;4992684;28;20232;-56
2022/04/30 02:17:14;;;;;;;2.20;2.10;;;;;;;;;;4997882;28;20207;-56
2022/04/30 02:22:30;;;;;;;2.50;2.40;;;;;;;;;;4997908;28;20312;-56
2022/04/30 02:24:58;;;;;;;2.60;2.45;;;;;;;;;;4997702;28;20207;-56
2022/04/30 02:27:26;;;;;;;2.13;2.03;;;;;;;;;;4977793;28;20214;-56
2022/04/30 02:29:55;;;;;;;2.33;2.20;;;;;;;;;;4978018;28;20278;-56
2022/04/30 02:32:23;;;;;;;2.40;2.30;;;;;;;;;;4978071;28;20213;-56
2022/04/30 02:34:51;;;;;;;2.30;2.10;;;;;;;;;;4978960;28;20519;-56
2022/04/30 02:37:19;;;;;;;2.22;2.13;;;;;;;;;;4978383;28;20537;-56
2022/04/30 02:39:46;;;;;;;2.13;2.03;;;;;;;;;;4997914;28;20207;-56
2022/04/30 02:42:14;;;;;;;2.20;2.10;;;;;;;;;;4995671;28;20223;-56
2022/04/30 02:44:42;;;;;;;2.15;2.03;;;;;;;;;;4977958;28;20223;-56
2022/04/30 02:47:11;;;;;;;1.98;1.88;;;;;;;;;;4988815;28;20199;-56
2022/04/30 02:49:39;;;;;;;2.20;2.10;;;;;;;;;;4997829;28;20207;-56
2022/04/30 02:52:07;;;;;;;2.28;2.17;;;;;;;;;;4997155;28;20194;-56
2022/04/30 02:54:34;;;;;;;2.20;2.10;;;;;;;;;;4997797;28;20211;-56
2022/04/30 02:57:02;;;;;;;1.92;1.83;;;;;;;;;;4995645;28;20200;-56
2022/04/30 03:02:16;;;;;;;1.95;1.85;;;;;;;;;;4996785;28;20312;-56
2022/04/30 03:04:44;;;;;;;2.13;2.03;;;;;;;;;;4996968;28;20210;-56
2022/04/30 03:07:12;;;;;;;2.03;1.92;;;;;;;;;;4997586;28;20548;-56
2022/04/30 03:09:40;;;;;;;2.10;2.00;;;;;;;;;;4977848;28;20243;-56
2022/04/30 03:12:09;;;;;;;2.05;1.95;;;;;;;;;;4977756;28;20636;-56
2022/04/30 03:14:36;;;;;;;1.98;1.88;;;;;;;;;;4977909;28;20695;-56
2022/04/30 03:22:38;;;;;;;2.20;2.10;;;;;;;;;;4948255;28;20317;-56
2022/04/30 03:25:06;;;;;;;2.10;2.00;;;;;;;;;;4977564;28;20222;-56
2022/04/30 03:27:34;;;;;;;2.10;2.00;;;;;;;;;;4979466;28;20214;-56
2022/04/30 03:30:02;;;;;;;2.10;2.00;;;;;;;;;;4981840;28;20510;-56
2022/04/30 03:32:31;;;;;;;1.95;1.85;;;;;;;;;;4981078;28;20204;-56
2022/04/30 03:35:00;;;;;;;2.25;2.15;;;;;;;;;;4981495;28;20226;-57
2022/04/30 03:37:27;;;;;;;1.85;1.75;;;;;;;;;;4991117;28;20221;-56
2022/04/30 03:39:55;;;;;;;2.00;1.90;;;;;;;;;;4984163;28;20676;-56
2022/04/30 03:42:23;;;;;;;2.10;2.00;;;;;;;;;;4981008;28;20234;-56
2022/04/30 03:44:53;;;;;;;2.30;2.20;;;;;;;;;;4982938;28;20203;-56
2022/04/30 03:47:20;;;;;;;2.00;1.90;;;;;;;;;;4981059;28;20208;-56
2022/04/30 03:49:48;;;;;;;1.88;1.77;;;;;;;;;;4988532;28;20282;-56
2022/04/30 03:52:17;;;;;;;2.10;2.00;;;;;;;;;;4985140;28;20469;-56
2022/04/30 03:54:45;;;;;;;2.20;2.10;;;;;;;;;;5000073;28;20265;-56
2022/04/30 03:57:13;;;;;;;1.75;1.65;;;;;;;;;;4996448;28;20200;-56
2022/04/30 03:59:40;;;;;;;2.13;2.03;;;;;;;;;;4981097;28;20208;-56
2022/04/30 04:02:08;;;;;;;2.00;1.90;;;;;;;;;;4980869;28;20306;-56
2022/04/30 04:04:35;;;;;;;1.77;1.67;;;;;;;;;;4981009;28;20231;-56
2022/04/30 04:07:03;;;;;;;2.72;2.35;;;;;;;;;;4981472;28;20212;-56
2022/04/30 04:09:32;;;;;;;2.10;2.00;;;;;;;;;;4991601;28;20196;-56
2022/04/30 04:12:00;;;;;;;2.20;2.10;;;;;;;;;;4981071;28;20203;-56
2022/04/30 04:19:58;;;;;;;1.90;1.80;;;;;;;;;;5000414;28;20194;-56
2022/04/30 04:22:25;;;;;;;2.10;1.90;;;;;;;;;;4999671;28;20325;-55
2022/04/30 04:27:40;;;;;;;2.00;1.90;;;;;;;;;;4980313;28;20202;-56
2022/04/30 04:30:08;;;;;;;2.00;1.90;;;;;;;;;;4980771;28;20311;-56
2022/04/30 04:32:36;;;;;;;2.00;1.90;;;;;;;;;;4980484;28;20207;-56
2022/04/30 04:35:04;;;;;;;2.00;1.90;;;;;;;;;;4979951;28;20207;-56
2022/04/30 04:37:32;;;;;;;2.03;1.92;;;;;;;;;;4982604;28;20210;-56
2022/04/30 04:40:01;;;;;;;2.10;2.00;;;;;;;;;;4998116;28;20207;-56
2022/04/30 04:42:28;;;;;;;2.10;2.00;;;;;;;;;;4982302;28;20223;-56
2022/04/30 04:44:56;;;;;;;2.10;2.00;;;;;;;;;;4980005;28;20216;-57
2022/04/30 04:47:23;;;;;;;2.00;1.90;;;;;;;;;;4979894;28;20215;-56
2022/04/30 04:49:51;;;;;;;2.00;1.90;;;;;;;;;;4979782;28;20210;-56
2022/04/30 04:52:19;;;;;;;2.20;2.10;;;;;;;;;;4989642;28;20210;-56
2022/04/30 04:54:47;;;;;;;2.15;2.05;;;;;;;;;;4999575;28;20214;-56
2022/04/30 04:57:16;;;;;;;2.03;1.92;;;;;;;;;;4998360;28;20221;-56
2022/04/30 04:59:43;;;;;;;2.17;2.08;;;;;;;;;;4998815;28;20214;-55
2022/04/30 05:02:11;;;;;;;2.00;1.90;;;;;;;;;;4998600;28;20231;-56
2022/04/30 05:04:39;;;;;;;2.30;2.20;;;;;;;;;;4999499;28;20656;-56
2022/04/30 05:07:07;;;;;;;2.17;2.08;;;;;;;;;;4998872;28;20199;-55
2022/04/30 05:09:34;;;;;;;2.00;1.90;;;;;;;;;;4986283;28;20203;-55
2022/04/30 05:12:02;;;;;;;2.00;1.90;;;;;;;;;;4997482;28;20191;-56
2022/04/30 05:14:32;;;;;;;2.35;2.25;;;;;;;;;;4999278;28;20207;-56
2022/04/30 05:17:00;;;;;;;2.10;2.00;;;;;;;;;;4999096;28;20199;-56
2022/04/30 05:19:28;;;;;;;2.20;2.10;;;;;;;;;;4998682;28;20203;-56
2022/04/30 05:21:56;;;;;;;2.08;1.98;;;;;;;;;;4996207;28;20220;-56
2022/04/30 05:24:23;;;;;;;2.25;2.15;;;;;;;;;;4979157;28;20249;-56
2022/04/30 05:26:51;;;;;;;2.10;2.00;;;;;;;;;;4979838;28;20278;-56
2022/04/30 05:29:19;;;;;;;2.00;1.90;;;;;;;;;;4982881;28;20207;-56
2022/04/30 05:31:48;;;;;;;2.10;2.00;;;;;;;;;;4998133;28;20652;-56
2022/04/30 05:34:15;;;;;;;2.22;2.13;;;;;;;;;;4998194;28;20206;-56
2022/04/30 05:36:43;;;;;;;2.20;2.10;;;;;;;;;;4997992;28;20277;-55
2022/04/30 05:39:10;;;;;;;2.00;1.90;;;;;;;;;;4997496;28;20200;-55
2022/04/30 05:41:38;;;;;;;2.20;2.05;;;;;;;;;;4991133;28;20211;-55
2022/04/30 05:44:06;;;;;;;2.10;2.00;;;;;;;;;;4978301;28;20223;-56
2022/04/30 05:46:34;;;;;;;2.00;1.90;;;;;;;;;;4977817;28;20211;-56
2022/04/30 05:49:03;;;;;;;2.10;2.00;;;;;;;;;;4978015;28;20302;-56
2022/04/30 05:51:30;;;;;;;2.33;2.13;;;;;;;;;;4978017;28;20502;-55
2022/04/30 05:53:58;;;;;;;2.10;2.00;;;;;;;;;;4996603;28;20595;-56
2022/04/30 05:56:27;;;;;;;2.30;2.20;;;;;;;;;;4996944;28;20293;-56
2022/04/30 05:58:55;;;;;;;2.10;2.00;;;;;;;;;;4996774;28;20203;-56
2022/04/30 06:01:22;;;;;;;2.17;2.08;;;;;;;;;;4992246;28;20235;-56
2022/04/30 06:03:50;;;;;;;2.15;2.05;;;;;;;;;;4980790;28;20238;-55
2022/04/30 06:06:19;;;;;;;1.88;1.77;;;;;;;;;;4992863;28;20203;-56
2022/04/30 06:08:47;;;;;;;2.17;2.08;;;;;;;;;;4992738;28;20207;-56
2022/04/30 06:11:15;;;;;;;2.05;1.95;;;;;;;;;;4980181;28;20203;-55
2022/04/30 06:13:42;;;;;;;1.88;1.77;;;;;;;;;;4981425;28;20209;-56
2022/04/30 06:16:09;;;;;;;1.88;1.77;;;;;;;;;;4997105;28;20203;-56
2022/04/30 06:18:37;;;;;;;1.90;1.80;;;;;;;;;;4997206;28;20206;-56
2022/04/30 06:21:04;;;;;;;2.75;2.10;;;;;;;;;;4996275;28;20207;-55
2022/04/30 06:23:33;;;;;;;2.20;1.90;;;;;;;;;;4995102;28;20234;-56
2022/04/30 06:26:01;;;;;;;2.22;2.13;;;;;;;;;;4988030;28;20597;-56
2022/04/30 06:28:28;;;;;;;1.83;1.73;;;;;;;;;;4975161;28;20491;-56
2022/04/30 06:30:55;;;;;;;2.22;2.08;;;;;;;;;;4975645;28;20643;-55
2022/04/30 06:33:24;;;;;;;1.98;1.80;;;;;;;;;;4976107;28;20299;-56
2022/04/30 06:35:51;;;;;;;2.15;1.95;;;;;;;;;;4985061;28;20302;-56
2022/04/30 06:38:19;;;;;;;2.33;1.92;;;;;;;;;;4978637;28;20607;-56
2022/04/30 06:40:48;;;;;;;2.20;2.00;;;;;;;;;;4977175;28;20208;-55
2022/04/30 06:43:15;;;;;;;1.83;1.73;;;;;;;;;;4979067;28;20486;-56
2022/04/30 06:45:43;;;;;;;1.90;1.80;;;;;;;;;;4976435;28;20207;-56
2022/04/30 06:48:10;;;;;;;2.15;2.05;;;;;;;;;;4976721;28;20696;-56
2022/04/30 06:50:38;;;;;;;2.65;2.00;;;;;;;;;;4976825;28;20605;-56
2022/04/30 06:58:44;;;;;;;2.03;1.92;;;;;;;;;;4996299;28;20272;-56
2022/04/30 07:01:37;;;;;;;1.98;1.88;;;;;;;;;;4996980;28;20575;-56
2022/04/30 07:04:05;;;;;;;2.00;1.90;;;;;;;;;;4999116;28;20223;-56
2022/04/30 07:06:33;;;;;;;2.20;2.00;;;;;;;;;;4997623;28;20459;-55
2022/04/30 07:09:00;;;;;;;2.00;1.90;;;;;;;;;;4984350;28;20207;-56
2022/04/30 07:11:29;;;;;;;1.85;1.75;;;;;;;;;;4980430;28;20203;-56
2022/04/30 07:13:56;;;;;;;2.33;2.13;;;;;;;;;;4978818;28;20363;-56
2022/04/30 07:16:24;;;;;;;3.00;2.00;;;;;;;;;;4985226;28;20209;-55
2022/04/30 07:18:51;;;;;;;2.00;1.90;;;;;;;;;;4998841;28;20214;-55
2022/04/30 07:21:19;;;;;;;1.92;1.83;;;;;;;;;;4990431;28;20218;-56
2022/04/30 07:23:47;;;;;;;2.00;1.90;;;;;;;;;;4979061;28;20314;-56
2022/04/30 07:26:16;;;;;;;2.00;1.80;;;;;;;;;;4993529;28;20203;-56
2022/04/30 07:28:46;;;;;;;1.90;1.80;;;;;;;;;;4998023;28;20238;-56
2022/04/30 07:31:13;;;;;;;2.30;2.10;;;;;;;;;;4998638;28;20262;-56
2022/04/30 07:33:41;;;;;;;1.90;1.80;;;;;;;;;;4997683;28;20199;-56
2022/04/30 07:36:08;;;;;;;2.40;2.20;;;;;;;;;;4998223;28;20367;-56
2022/04/30 07:38:36;;;;;;;2.17;1.98;;;;;;;;;;4988832;28;20289;-56
2022/04/30 07:41:03;;;;;;;2.05;1.95;;;;;;;;;;4980488;28;20204;-57
2022/04/30 07:43:31;;;;;;;2.72;2.20;;;;;;;;;;4978400;28;20219;-56
2022/04/30 07:46:00;;;;;;;2.10;1.85;;;;;;;;;;4979130;28;20199;-56
2022/04/30 07:48:27;;;;;;;3.33;2.00;;;;;;;;;;4979360;28;20204;-56
2022/04/30 07:50:57;;;;;;;2.10;2.00;;;;;;;;;;4979254;28;20216;-56
2022/04/30 07:53:25;;;;;;;2.08;1.90;;;;;;;;;;4991326;28;20199;-56
2022/04/30 07:55:54;;;;;;;2.13;1.95;;;;;;;;;;4997901;28;20203;-56
2022/04/30 07:58:22;;;;;;;2.20;2.00;;;;;;;;;;4997253;28;20210;-56
2022/04/30 08:00:49;;;;;;;2.22;2.03;;;;;;;;;;4997447;28;20234;-56
2022/04/30 08:03:18;;;;;;;2.30;2.10;;;;;;;;;;4996405;28;20504;-55
2022/04/30 08:05:45;;;;;;;2.30;2.10;;;;;;;;;;4997417;28;20219;-56
2022/04/30 08:08:12;;;;;;;2.38;1.88;;;;;;;;;;4990705;28;20513;-56
2022/04/30 08:10:40;;;;;;;2.20;2.00;;;;;;;;;;4982466;28;20203;-56
2022/04/30 08:13:07;;;;;;;1.83;1.73;;;;;;;;;;4977559;28;20254;-56
2022/04/30 08:15:37;;;;;;;2.05;1.95;;;;;;;;;;4977779;28;20207;-56
2022/04/30 08:18:04;;;;;;;2.33;2.05;;;;;;;;;;4977983;28;20211;-56
2022/04/30 08:20:33;;;;;;;2.20;2.05;;;;;;;;;;4978381;28;20207;-56
2022/04/30 08:23:00;;;;;;;2.03;1.92;;;;;;;;;;4976792;28;20325;-57
2022/04/30 08:25:28;;;;;;;2.60;2.40;;;;;;;;;;4981275;28;20504;-56
2022/04/30 08:27:55;;;;;;;2.42;2.22;;;;;;;;;;4996606;28;20217;-56
2022/04/30 08:30:22;;;;;;;2.00;1.90;;;;;;;;;;4997005;28;20247;-56
2022/04/30 08:32:50;;;;;;;1.90;1.80;;;;;;;;;;4989356;28;20218;-56
2022/04/30 08:35:17;;;;;;;2.28;2.08;;;;;;;;;;4996655;28;20198;-56
2022/04/30 08:37:46;;;;;;;2.72;2.00;;;;;;;;;;4992742;28;20207;-56
2022/04/30 08:40:14;;;;;;;1.90;1.80;;;;;;;;;;4992467;28;20225;-56
2022/04/30 08:42:41;;;;;;;2.25;2.10;;;;;;;;;;4997091;28;20194;-56
2022/04/30 08:45:09;;;;;;;1.90;1.80;;;;;;;;;;4996770;28;20369;-56
2022/04/30 08:47:39;;;;;;;2.17;2.05;;;;;;;;;;4995896;28;20202;-56
2022/04/30 08:50:08;;;;;;;2.03;1.90;;;;;;;;;;4996293;28;20258;-56
2022/04/30 08:52:36;;;;;;;2.03;1.92;;;;;;;;;;4995325;28;20205;-56
2022/04/30 08:55:05;;;;;;;2.03;1.90;;;;;;;;;;4996343;28;20203;-56
2022/04/30 08:57:32;;;;;;;1.90;1.80;;;;;;;;;;4995440;28;20203;-56
2022/04/30 09:00:00;;;;;;;2.42;2.22;;;;;;;;;;4976822;28;20203;-56
2022/04/30 09:02:28;;;;;;;2.05;1.92;;;;;;;;;;4976123;28;20625;-56
2022/04/30 09:04:55;;;;;;;1.75;1.65;;;;;;;;;;4976561;28;20227;-56
2022/04/30 09:07:23;;;;;;;2.20;2.03;;;;;;;;;;4976426;28;20621;-56
2022/04/30 09:09:55;;;;;;;1.90;1.80;;;;;;;;;;4994993;28;20218;-56
2022/04/30 09:12:24;;;;;;;2.05;1.75;;;;;;;;;;4993377;28;20203;-56
2022/04/30 09:14:52;;;;;;;2.70;2.15;;;;;;;;;;4987867;28;20413;-56
2022/04/30 09:17:22;;;;;;;1.92;1.75;;;;;;;;;;4994724;28;20205;-56
2022/04/30 09:19:50;;;;;;;2.30;2.20;;;;;;;;;;4994053;28;20211;-56
2022/04/30 09:22:18;;;;;;;2.58;2.05;;;;;;;;;;4992959;28;20458;-56
2022/04/30 09:24:46;;;;;;;2.30;2.10;;;;;;;;;;4980962;28;20476;-55
2022/04/30 09:27:15;;;;;;;2.13;2.03;;;;;;;;;;4978932;28;20257;-55
2022/04/30 09:29:44;;;;;;;1.90;1.80;;;;;;;;;;4987352;28;20196;-55
2022/04/30 09:32:18;;;;;;;2.13;2.00;;;;;;;;;;4975572;28;20204;-55
2022/04/30 09:37:45;;;;;;;2.50;2.30;;;;;;;;;;4979025;28;20194;-56
2022/04/30 09:40:19;;;;;;;2.00;1.90;;;;;;;;;;4992895;28;20202;-56
2022/04/30 09:42:48;;;;;;;1.75;1.65;;;;;;;;;;4990444;28;20207;-56
2022/04/30 09:45:24;;;;;;;2.05;1.90;;;;;;;;;;4975078;28;20231;-56
2022/04/30 09:47:53;;;;;;;2.08;1.88;;;;;;;;;;4980355;28;20202;-56
2022/04/30 09:55:53;;;;;;;2.20;2.10;;;;;;;;;;4976254;28;20505;-56
2022/04/30 09:58:22;;;;;;;2.40;2.20;;;;;;;;;;4975691;28;20466;-56
2022/04/30 10:00:54;;;;;;;1.98;1.88;;;;;;;;;;4984614;28;20199;-56
2022/04/30 10:03:23;;;;;;;2.22;2.13;;;;;;;;;;4993500;28;20623;-56
2022/04/30 10:05:50;;;;;;;2.30;2.10;;;;;;;;;;4995926;28;20210;-56
2022/04/30 10:08:18;;;;;;;2.20;2.03;;;;;;;;;;4985258;28;20230;-56
2022/04/30 10:10:51;;;;;;;2.53;2.33;;;;;;;;;;4991598;28;20600;-56
2022/04/30 10:13:24;;;;;;;2.28;2.15;;;;;;;;;;4990480;28;20227;-56
2022/04/30 10:15:54;;;;;;;2.63;2.42;;;;;;;;;;4974552;28;20200;-56
2022/04/30 10:18:24;;;;;;;2.08;1.98;;;;;;;;;;4973542;28;20628;-56
2022/04/30 10:20:52;;;;;;;2.50;2.30;;;;;;;;;;4967151;28;20200;-56
2022/04/30 10:23:19;;;;;;;2.55;2.42;;;;;;;;;;4974783;28;20737;-56
2022/04/30 10:25:47;;;;;;;2.65;2.45;;;;;;;;;;4982644;28;20195;-56
2022/04/30 10:28:18;;;;;;;2.30;2.20;;;;;;;;;;4995798;28;20502;-56
2022/04/30 10:30:48;;;;;;;2.80;2.60;;;;;;;;;;4995062;28;20235;-56
2022/04/30 10:33:20;;;;;;;2.60;2.40;;;;;;;;;;4992556;28;20619;-56
2022/04/30 10:35:47;;;;;;;2.70;2.50;;;;;;;;;;4993957;28;20313;-56
2022/04/30 10:38:23;;;;;;;2.67;2.47;;;;;;;;;;4988008;28;20198;-57
2022/04/30 10:40:51;;;;;;;2.97;2.78;;;;;;;;;;4993871;28;20199;-56
2022/04/30 10:43:19;;;;;;;2.70;2.55;;;;;;;;;;4973981;28;20218;-56
2022/04/30 10:45:47;;;;;;;2.45;2.30;;;;;;;;;;4975526;28;20207;-57
2022/04/30 10:48:14;;;;;;;2.83;2.58;;;;;;;;;;4990959;28;20214;-57
2022/04/30 10:50:44;;;;;;;3.00;2.70;;;;;;;;;;4975878;28;20457;-56
2022/04/30 10:53:12;;;;;;;3.05;2.85;;;;;;;;;;4989102;28;20203;-56
2022/04/30 10:55:40;;;;;;;3.00;2.80;;;;;;;;;;4993537;28;20488;-56
2022/04/30 10:58:08;;;;;;;3.08;2.88;;;;;;;;;;4976242;28;20212;-57
2022/04/30 11:00:35;;;;;;;2.60;2.40;;;;;;;;;;4991522;28;20198;-57
2022/04/30 11:03:09;;;;;;;2.90;2.70;;;;;;;;;;4980742;28;20204;-57
2022/04/30 11:05:37;;;;;;;2.80;2.63;;;;;;;;;;4991355;28;20454;-56
2022/04/30 11:08:06;;;;;;;2.90;2.70;;;;;;;;;;4991330;28;20203;-56
2022/04/30 11:10:34;;;;;;;3.10;2.90;;;;;;;;;;4993581;28;20211;-56
2022/04/30 11:13:07;;;;;;;2.80;2.60;;;;;;;;;;4990592;28;20195;-56
2022/04/30 11:15:35;;;;;;;2.97;2.78;;;;;;;;;;4993118;28;20297;-57
2022/04/30 11:18:02;;;;;;;2.60;2.40;;;;;;;;;;4992779;28;20230;-56
2022/04/30 11:20:30;;;;;;;2.88;2.67;;;;;;;;;;4993504;28;20207;-56
2022/04/30 11:23:00;;;;;;;2.90;2.70;;;;;;;;;;4992198;28;20206;-57
2022/04/30 11:25:35;;;;;;;2.88;2.67;;;;;;;;;;4992647;28;20234;-56
2022/04/30 11:28:06;;;;;;;2.70;2.50;;;;;;;;;;4991840;28;20604;-56
2022/04/30 11:30:37;;;;;;;2.63;2.45;;;;;;;;;;4993210;28;20235;-56
2022/04/30 11:33:04;;;;;;;2.65;2.45;;;;;;;;;;4992806;28;20214;-56
2022/04/30 11:35:31;;;;;;;3.10;2.90;;;;;;;;;;4977704;28;20255;-56
2022/04/30 11:37:59;;;;;;;3.00;2.80;;;;;;;;;;4982086;28;20195;-56
2022/04/30 11:40:27;;;;;;;2.80;2.60;;;;;;;;;;4992191;28;20210;-56
2022/04/30 11:42:59;;;;;;;2.83;2.63;;;;;;;;;;4984809;28;20204;-56
2022/04/30 11:45:29;;;;;;;2.83;2.63;;;;;;;;;;4980390;28;20249;-56
2022/04/30 11:47:56;;;;;;;3.00;2.80;;;;;;;;;;4994216;28;20203;-56
2022/04/30 11:50:24;;;;;;;2.80;2.60;;;;;;;;;;4996708;28;20203;-57
2022/04/30 11:52:51;;;;;;;2.78;2.58;;;;;;;;;;4995710;28;20203;-56
2022/04/30 11:55:20;;;;;;;3.00;2.80;;;;;;;;;;4996376;28;20206;-56
2022/04/30 11:57:48;;;;;;;2.70;2.50;;;;;;;;;;4995953;28;20488;-56
2022/04/30 12:00:18;;;;;;;2.88;2.67;;;;;;;;;;4996143;28;20533;-56
2022/04/30 12:02:47;;;;;;;2.88;2.67;;;;;;;;;;4994464;28;20238;-56
2022/04/30 12:05:15;;;;;;;2.80;2.60;;;;;;;;;;4989188;28;20234;-56
2022/04/30 12:07:43;;;;;;;2.75;2.55;;;;;;;;;;4976768;28;20279;-56
2022/04/30 12:10:18;;;;;;;2.63;2.42;;;;;;;;;;4986869;28;20360;-56
2022/04/30 12:12:45;;;;;;;2.90;2.70;;;;;;;;;;4975997;28;20514;-56
2022/04/30 12:15:22;;;;;;;3.00;2.80;;;;;;;;;;4993609;28;20215;-56
2022/04/30 12:26:09;;;;;;;2.92;2.72;;;;;;;;;;4989794;28;20235;-57
2022/04/30 12:28:45;;;;;;;2.92;2.72;;;;;;;;;;4975598;28;20207;-56
2022/04/30 12:31:13;;;;;;;2.80;2.60;;;;;;;;;;4974209;28;20472;-56
2022/04/30 12:33:48;;;;;;;2.92;2.72;;;;;;;;;;4976453;28;20207;-56
2022/04/30 12:36:15;;;;;;;2.90;2.70;;;;;;;;;;4977093;28;20672;-56
2022/04/30 12:38:53;;;;;;;2.63;2.50;;;;;;;;;;4980034;28;20492;-56
2022/04/30 12:41:23;;;;;;;2.80;2.60;;;;;;;;;;4981918;28;20195;-56
2022/04/30 12:43:50;;;;;;;2.67;2.47;;;;;;;;;;4997559;28;20207;-56
2022/04/30 12:46:23;;;;;;;3.08;2.88;;;;;;;;;;4994516;28;20219;-56
2022/04/30 12:48:50;;;;;;;3.10;2.90;;;;;;;;;;4978236;28;20211;-57
2022/04/30 12:51:19;;;;;;;2.30;2.20;;;;;;;;;;4977880;28;20593;-56
2022/04/30 12:53:47;;;;;;;3.03;2.83;;;;;;;;;;4977227;28;20290;-56
2022/04/30 12:56:14;;;;;;;2.72;2.53;;;;;;;;;;4977506;28;20204;-56
2022/04/30 12:58:41;;;;;;;2.85;2.65;;;;;;;;;;4995218;28;20226;-56
2022/04/30 13:01:09;;;;;;;3.00;2.80;;;;;;;;;;4997019;28;20226;-57
2022/04/30 13:03:38;;;;;;;2.88;2.67;;;;;;;;;;4995429;28;20210;-56
2022/04/30 13:06:05;;;;;;;2.40;2.30;;;;;;;;;;4996743;28;20234;-56
2022/04/30 13:13:59;;;;;;;2.63;2.42;;;;;;;;;;4976491;28;20261;-56
2022/04/30 13:16:27;;;;;;;2.80;2.60;;;;;;;;;;4977602;28;20218;-56
2022/04/30 13:18:55;;;;;;;2.92;2.70;;;;;;;;;;4976921;28;20204;-57
2022/04/30 13:21:23;;;;;;;2.72;2.53;;;;;;;;;;4978078;28;20203;-56
2022/04/30 13:23:50;;;;;;;2.63;2.42;;;;;;;;;;4987774;28;20211;-56
2022/04/30 13:26:20;;;;;;;3.03;2.83;;;;;;;;;;4995512;28;20243;-56
2022/04/30 13:28:48;;;;;;;2.75;2.55;;;;;;;;;;4977357;28;20207;-56
2022/04/30 13:31:15;;;;;;;2.75;2.65;;;;;;;;;;4976618;28;20242;-56
2022/04/30 13:33:42;;;;;;;2.60;2.50;;;;;;;;;;4994309;28;20514;-56
2022/04/30 13:36:11;;;;;;;2.65;2.55;;;;;;;;;;4996507;28;20207;-56
2022/04/30 13:38:40;;;;;;;2.67;2.47;;;;;;;;;;4985496;28;20239;-57
2022/04/30 13:41:08;;;;;;;3.10;2.90;;;;;;;;;;4994244;28;20203;-56
2022/04/30 13:43:35;;;;;;;2.90;2.70;;;;;;;;;;4977656;28;20204;-57
2022/04/30 13:46:03;;;;;;;2.80;2.60;;;;;;;;;;4977399;28;20226;-57
2022/04/30 13:48:31;;;;;;;2.45;2.35;;;;;;;;;;4976481;28;20560;-56
2022/04/30 13:50:58;;;;;;;2.53;2.35;;;;;;;;;;4975347;28;20211;-57
2022/04/30 13:53:27;;;;;;;2.40;2.30;;;;;;;;;;4984072;28;20605;-56
2022/04/30 13:55:55;;;;;;;3.05;2.85;;;;;;;;;;4994484;28;20199;-56
2022/04/30 13:58:22;;;;;;;2.40;2.30;;;;;;;;;;4978125;28;20601;-57
2022/04/30 14:00:50;;;;;;;2.95;2.65;;;;;;;;;;4985159;28;20622;-56
2022/04/30 14:03:17;;;;;;;2.55;2.45;;;;;;;;;;4993285;28;20205;-57
2022/04/30 14:05:44;;;;;;;2.88;2.67;;;;;;;;;;4992978;28;20230;-57
2022/04/30 14:08:12;;;;;;;2.60;2.42;;;;;;;;;;4984752;28;20203;-56
2022/04/30 14:10:41;;;;;;;2.63;2.42;;;;;;;;;;4982689;28;20200;-56
2022/04/30 14:15:53;;;;;;;2.80;2.60;;;;;;;;;;4973947;28;20201;-57
2022/04/30 14:18:24;;;;;;;2.65;2.55;;;;;;;;;;4993946;28;20206;-56
2022/04/30 14:20:51;;;;;;;3.03;2.83;;;;;;;;;;4993667;28;20213;-56
2022/04/30 14:23:19;;;;;;;2.78;2.58;;;;;;;;;;4994092;28;20226;-56
2022/04/30 14:25:49;;;;;;;2.90;2.70;;;;;;;;;;4993787;28;20241;-56
2022/04/30 14:28:18;;;;;;;2.95;2.75;;;;;;;;;;4985283;28;20266;-56
2022/04/30 14:30:45;;;;;;;2.90;2.70;;;;;;;;;;4973830;28;20239;-56
2022/04/30 14:33:13;;;;;;;2.63;2.50;;;;;;;;;;4973458;28;20243;-56
2022/04/30 14:35:40;;;;;;;2.80;2.60;;;;;;;;;;4974337;28;20593;-56
2022/04/30 14:38:11;;;;;;;2.47;2.28;;;;;;;;;;4980255;28;20235;-56
2022/04/30 14:40:39;;;;;;;2.55;2.42;;;;;;;;;;4974613;28;20266;-56
2022/04/30 14:43:09;;;;;;;2.47;2.38;;;;;;;;;;4974449;28;20266;-56
2022/04/30 14:45:36;;;;;;;2.88;2.67;;;;;;;;;;4974446;28;20223;-56
2022/04/30 14:48:04;;;;;;;2.90;2.70;;;;;;;;;;4974936;28;20206;-56
2022/04/30 14:50:32;;;;;;;2.70;2.53;;;;;;;;;;4975904;28;20212;-56
2022/04/30 14:53:00;;;;;;;2.50;2.40;;;;;;;;;;4975821;28;20266;-56
2022/04/30 14:55:28;;;;;;;2.83;2.63;;;;;;;;;;4975850;28;20195;-57
2022/04/30 14:57:56;;;;;;;2.95;2.75;;;;;;;;;;4976588;28;20207;-56
2022/04/30 15:00:25;;;;;;;2.70;2.60;;;;;;;;;;4975583;28;20813;-56
2022/04/30 15:02:52;;;;;;;2.88;2.67;;;;;;;;;;4974973;28;20211;-56
2022/04/30 15:05:22;;;;;;;2.55;2.40;;;;;;;;;;4975381;28;20234;-56
2022/04/30 15:07:50;;;;;;;3.00;2.78;;;;;;;;;;4980912;28;20797;-56
2022/04/30 15:10:17;;;;;;;2.90;2.70;;;;;;;;;;4993904;28;20213;-56
2022/04/30 15:12:44;;;;;;;2.47;2.28;;;;;;;;;;4991668;28;20211;-56
2022/04/30 15:15:12;;;;;;;3.22;2.92;;;;;;;;;;4994176;28;20207;-56
2022/04/30 15:17:41;;;;;;;2.90;2.70;;;;;;;;;;4983394;28;20209;-57
2022/04/30 15:20:09;;;;;;;2.78;2.58;;;;;;;;;;4975409;28;20211;-56
2022/04/30 15:22:36;;;;;;;3.03;2.83;;;;;;;;;;4976603;28;20561;-56
2022/04/30 15:25:04;;;;;;;3.00;2.70;;;;;;;;;;4978194;28;20223;-56
2022/04/30 15:27:32;;;;;;;2.70;2.50;;;;;;;;;;4986849;28;20562;-56
2022/04/30 15:30:00;;;;;;;3.92;2.75;;;;;;;;;;4997980;28;20548;-56
2022/04/30 15:32:28;;;;;;;2.85;2.65;;;;;;;;;;4984210;28;20210;-56
2022/04/30 15:34:56;;;;;;;2.85;2.65;;;;;;;;;;4978505;28;20218;-56
2022/04/30 15:37:24;;;;;;;2.60;2.50;;;;;;;;;;4977757;28;20204;-56
2022/04/30 15:39:52;;;;;;;2.60;2.38;;;;;;;;;;4991463;28;20195;-56
2022/04/30 15:42:19;;;;;;;2.90;2.70;;;;;;;;;;4980879;28;20200;-56
2022/04/30 15:44:47;;;;;;;2.42;2.33;;;;;;;;;;4986384;28;20195;-56
2022/04/30 15:52:45;;;;;;;2.70;2.50;;;;;;;;;;4986822;28;20482;-56